Tropical Cyclones
[Index]
Main Index Home Page Stock Weather Photos Extreme Storms Discussion Storm News and Storm Chasing Reports Tropical Cyclones / Hurricanes / Typhoons Weather Data and Links Wild Fires / Bushfires Weather Observation Techniques Weather Picture Catalogue Tornado Pictures and Reports Stock Video Footage and DVDs for sale
Season 2004-2005 Tropical Cyclone ADELINE-JULIET Track Map
Season 2004-2005 Summaries: [BoM-AU] [JTWC-AU] [JTWC-SIO] [JTWC-SPAC] [JTWC-SH]
<<- Previous TC | JTWC 2004-2005 Season | Next TC ->>

click for intensity scale information  Lat/long Grid: Show Hide

 Date Labels: Show Hide

Joint Typhoon Warning Centre Cyclone Data

Name: ADELINE-JULIET

01 Apr 2005 12:00 UTC to 12 Apr 2005 18:00 UTC

    date/time    lat    long     hPa   cat  kts
2005-04-01 12   10.9   102.4    1006         15          
2005-04-01 18   10.5   102.8    1006         15          
2005-04-02 00   10.2   102.2    1006         15          
2005-04-02 06   10.1   101.5    1006         15          
2005-04-02 12   10.7   101.0    1006         15          
2005-04-02 18   11.2   100.3    1004         20          
2005-04-03 00   11.5    99.5    1004         20          
2005-04-03 06   11.8    98.7    1003         20          
2005-04-03 12   12.1    97.9    1001         25          
2005-04-03 18   12.5    96.9     999         30          
2005-04-04 00   12.9    95.9     999         30          
2005-04-04 06   13.2    94.8     999         30          
2005-04-04 12   13.4    93.8     999         30          
2005-04-04 18   13.4    92.8     991    1    45          
2005-04-05 00   13.4    91.9     980    2    60          
2005-04-05 06   13.3    91.0     967    3    75          
2005-04-05 06   13.3    91.0     967    3    75          
2005-04-05 12   13.1    90.1     958    3    85          
2005-04-05 12   13.1    90.1     958    3    85          
2005-04-05 12   13.1    90.1     958    3    85          
2005-04-05 18   13.0    89.3     954    3    90          
2005-04-05 18   13.0    89.3     954    3    90          
2005-04-05 18   13.0    89.3     954    3    90          
2005-04-06 00   13.0    88.5     938    4   105          
2005-04-06 00   13.0    88.5     938    4   105          
2005-04-06 00   13.0    88.5     938    4   105          
2005-04-06 06   13.1    87.5     938    4   105          
2005-04-06 06   13.1    87.5     938    4   105          
2005-04-06 06   13.1    87.5     938    4   105          
2005-04-06 12   13.3    86.5     933    4   110          
2005-04-06 12   13.3    86.5     933    4   110          
2005-04-06 12   13.3    86.5     933    4   110          
2005-04-06 18   13.6    85.3     944    4   100          
2005-04-06 18   13.6    85.3     944    4   100          
2005-04-06 18   13.6    85.3     944    4   100          
2005-04-07 00   14.0    83.9     944    4   100          
2005-04-07 00   14.0    83.9     944    4   100          
2005-04-07 00   14.0    83.9     944    4   100          
2005-04-07 06   14.5    82.5     949    3    95          
2005-04-07 06   14.5    82.5     949    3    95          
2005-04-07 06   14.5    82.5     949    3    95          
2005-04-07 12   14.9    81.2     958    3    85          
2005-04-07 12   14.9    81.2     958    3    85          
2005-04-07 12   14.9    81.2     958    3    85          
2005-04-07 18   15.0    79.9     963    3    80          
2005-04-07 18   15.0    79.9     963    3    80          
2005-04-07 18   15.0    79.9     963    3    80          
2005-04-08 00   15.1    78.4     954    3    90          
2005-04-08 00   15.1    78.4     954    3    90          
2005-04-08 00   15.1    78.4     954    3    90          
2005-04-08 06   15.6    76.9     954    3    90          
2005-04-08 06   15.6    76.9     954    3    90          
2005-04-08 06   15.6    76.9     954    3    90          
2005-04-08 12   16.0    75.2     954    3    90          
2005-04-08 12   16.0    75.2     954    3    90          
2005-04-08 12   16.0    75.2     954    3    90          
2005-04-08 18   16.4    73.5     944    4   100          
2005-04-08 18   16.4    73.5     944    4   100          
2005-04-08 18   16.4    73.5     944    4   100          
2005-04-09 00   16.8    71.8     933    4   110          
2005-04-09 00   16.8    71.8     933    4   110          
2005-04-09 00   16.8    71.8     933    4   110          
2005-04-09 06   17.2    70.1     916    5   125          
2005-04-09 06   17.2    70.1     916    5   125          
2005-04-09 06   17.2    70.1     916    5   125          
2005-04-09 12   17.8    68.6     922    4   120          
2005-04-09 12   17.8    68.6     922    4   120          
2005-04-09 12   17.8    68.6     922    4   120          
2005-04-09 18   18.3    67.3     916    5   125          
2005-04-09 18   18.3    67.3     916    5   125          
2005-04-09 18   18.3    67.3     916    5   125          
2005-04-10 00   19.0    66.1     916    5   125          
2005-04-10 00   19.0    66.1     916    5   125          
2005-04-10 00   19.0    66.1     916    5   125          
2005-04-10 06   19.7    65.1     916    5   125          
2005-04-10 06   19.7    65.1     916    5   125          
2005-04-10 06   19.7    65.1     916    5   125          
2005-04-10 12   20.6    64.3     922    4   120          
2005-04-10 12   20.6    64.3     922    4   120          
2005-04-10 12   20.6    64.3     922    4   120          
2005-04-10 18   21.5    63.8     933    4   110          
2005-04-10 18   21.5    63.8     933    4   110          
2005-04-10 18   21.5    63.8     933    4   110          
2005-04-11 00   22.4    63.6     944    4   100          
2005-04-11 00   22.4    63.6     944    4   100          
2005-04-11 00   22.4    63.6     944    4   100          
2005-04-11 06   23.4    63.6     954    3    90          
2005-04-11 06   23.4    63.6     954    3    90          
2005-04-11 06   23.4    63.6     954    3    90          
2005-04-11 12   24.3    63.6     963    3    80          
2005-04-11 12   24.3    63.6     963    3    80          
2005-04-11 12   24.3    63.6     963    3    80          
2005-04-11 18   25.3    63.8     972    2    70          
2005-04-11 18   25.3    63.8     972    2    70          
2005-04-12 00   26.2    64.7     984    2    55          
2005-04-12 00   26.2    64.7     984    2    55          
2005-04-12 06   27.0    65.8     987    1    50          
2005-04-12 12   27.9    67.5     987    1    50          
2005-04-12 18   28.0    69.6     994    1    40          
Winds are 1-min average.

Tropical cyclone tracks developed by Michael Bath using data from the Joint Typhoon Warning Centre Best Tracks and Google Maps.


[Australian Severe Weather index] [Copyright Notice] [Email Contacts] [Search This Site] [Privacy Policy]
Document: tropical_cyclone_adeline-juliet.htm Updated: 28 June 2017